Time;durP1;ratioP1;P1;durP2;ratioP2;P2;SDS_P1;SDS_P2;PMS_P1;PMS_P2;Temp;Humidity;BMP_temperature;BMP_pressure;BME280_temperature;BME280_humidity;BME280_pressure;Samples;Min_cycle;Max_cycle;Signal;HPM_P1;HPM_P2
2023/01/25 07:18:47;;;;;;;3.40;1.30;;;17.60;54.20;;;;;;6105146;23;20208;-80
2023/01/25 07:21:26;;;;;;;;;;;;;;;;;;;;;
2023/01/25 07:23:53;;;;;;;2.08;1.20;;;17.60;54.10;;;;;;6016411;23;20181;-81
2023/01/25 07:26:24;;;;;;;1.35;1.02;;;17.60;54.00;;;;;;6042171;23;20153;-83
2023/01/25 07:29:00;;;;;;;1.88;1.10;;;17.60;54.00;;;;;;6019513;23;20135;-82
2023/01/25 07:31:26;;;;;;;1.35;1.20;;;17.60;54.00;;;;;;5994751;23;20220;-84
2023/01/25 07:33:56;;;;;;;3.03;1.20;;;17.70;53.90;;;;;;5998328;23;20154;-83
2023/01/25 07:36:31;;;;;;;2.22;1.10;;;17.70;53.80;;;;;;5998368;23;20154;-85
2023/01/25 07:39:27;;;;;;;8.95;1.27;;;17.70;53.80;;;;;;5978203;23;20161;-84
2023/01/25 07:41:53;;;;;;;2.72;1.10;;;17.70;53.70;;;;;;6001316;23;20169;-86
2023/01/25 07:44:20;;;;;;;4.05;1.00;;;17.80;53.50;;;;;;6000565;23;20601;-85
2023/01/25 07:47:11;;;;;;;6.20;1.30;;;17.90;53.30;;;;;;5994444;23;20177;-85
2023/01/25 07:49:37;;;;;;;3.30;1.10;;;18.00;53.50;;;;;;6018762;23;20595;-85
2023/01/25 07:52:13;;;;;;;;;;;;;;;;;;;;;
2023/01/25 07:54:44;;;;;;;6.68;1.30;;;18.10;52.60;;;;;;6082448;23;20180;-87
2023/01/25 07:57:14;;;;;;;2.35;1.00;;;18.10;52.60;;;;;;6126540;23;20129;-82
2023/01/25 07:59:42;;;;;;;1.83;1.10;;;18.10;52.50;;;;;;6075559;23;20152;-83
2023/01/25 08:02:10;;;;;;;2.80;0.93;;;18.20;52.40;;;;;;6076666;23;20274;-85
2023/01/25 08:04:38;;;;;;;2.65;1.10;;;18.20;52.70;;;;;;6125631;23;20145;-83
2023/01/25 08:07:29;;;;;;;2.40;1.00;;;18.20;52.70;;;;;;6098813;23;20207;-84
2023/01/25 08:10:44;;;;;;;2.55;1.10;;;18.20;52.70;;;;;;6105752;23;20130;-85
2023/01/25 08:14:17;;;;;;;1.42;1.00;;;18.20;52.90;;;;;;6066719;23;20200;-86
2023/01/25 08:16:43;;;;;;;2.45;0.85;;;18.20;53.00;;;;;;5934401;24;20243;-87
2023/01/25 08:19:14;;;;;;;3.88;1.10;;;18.20;53.00;;;;;;5918089;24;20183;-84
2023/01/25 08:21:40;;;;;;;2.03;0.90;;;18.10;53.10;;;;;;5904174;24;20167;-84
2023/01/25 08:24:06;;;;;;;2.97;1.05;;;18.20;53.10;;;;;;5904609;24;20220;-86
2023/01/25 08:26:34;;;;;;;3.03;0.80;;;18.20;53.00;;;;;;5903503;24;20244;-83
2023/01/25 08:29:00;;;;;;;4.68;1.15;;;18.20;52.90;;;;;;5905516;24;20181;-85
2023/01/25 08:31:27;;;;;;;4.03;0.77;;;18.30;52.90;;;;;;5926054;24;20189;-83
2023/01/25 08:33:53;;;;;;;1.40;1.00;;;18.30;53.00;;;;;;5903343;24;20172;-83
2023/01/25 08:36:19;;;;;;;1.70;0.90;;;18.20;52.80;;;;;;5922953;24;20157;-83
2023/01/25 08:38:46;;;;;;;1.25;0.93;;;18.30;52.80;;;;;;5899411;24;20527;-84
2023/01/25 08:41:15;;;;;;;1.42;1.00;;;18.30;52.60;;;;;;5924668;24;20161;-83
2023/01/25 08:43:41;;;;;;;2.63;0.95;;;18.40;52.60;;;;;;5901824;24;20185;-86
2023/01/25 08:46:08;;;;;;;4.55;0.90;;;18.40;52.50;;;;;;5944889;24;20153;-86
2023/01/25 08:48:33;;;;;;;2.85;0.93;;;18.40;52.50;;;;;;5929846;24;20188;-84
2023/01/25 08:50:59;;;;;;;1.15;0.80;;;18.40;52.50;;;;;;5952315;24;20181;-85
2023/01/25 08:53:27;;;;;;;1.90;0.82;;;18.40;52.50;;;;;;5993625;23;20244;-87
2023/01/25 08:55:53;;;;;;;7.88;1.00;;;18.40;52.40;;;;;;6075646;23;20153;-85
2023/01/25 08:58:21;;;;;;;1.30;0.77;;;18.40;52.50;;;;;;6077583;23;20537;-86
2023/01/25 09:01:08;;;;;;;3.08;0.80;;;18.40;52.50;;;;;;6078404;23;20152;-85
2023/01/25 09:03:35;;;;;;;1.85;0.80;;;18.50;52.60;;;;;;6077893;23;20596;-84
2023/01/25 09:06:01;;;;;;;1.65;0.80;;;18.50;52.70;;;;;;6081626;23;20145;-85
2023/01/25 09:08:29;;;;;;;0.70;0.70;;;18.50;53.30;;;;;;6079980;23;20208;-85
2023/01/25 09:11:01;;;;;;;4.57;0.80;;;18.50;52.50;;;;;;6104394;23;20551;-85
2023/01/25 09:13:27;;;;;;;5.40;0.98;;;18.50;52.70;;;;;;6124721;23;20136;-84
2023/01/25 09:16:00;;;;;;;1.08;0.80;;;18.50;52.70;;;;;;6077978;23;20528;-86
2023/01/25 09:18:27;;;;;;;1.05;0.90;;;18.50;52.70;;;;;;6097996;23;20223;-84
2023/01/25 09:20:53;;;;;;;1.10;0.70;;;18.50;52.80;;;;;;6155347;23;20156;-85
2023/01/25 09:23:22;;;;;;;1.77;0.55;;;18.50;52.80;;;;;;6107301;23;20144;-85
2023/01/25 09:25:55;;;;;;;1.80;0.98;;;18.50;52.90;;;;;;6131469;23;20192;-84
2023/01/25 09:28:20;;;;;;;3.35;0.95;;;18.60;53.00;;;;;;6103480;23;20151;-84
2023/01/25 09:30:53;;;;;;;1.25;0.80;;;18.60;53.00;;;;;;6128380;23;20174;-84
2023/01/25 09:33:19;;;;;;;2.55;0.95;;;18.60;52.80;;;;;;6153837;23;20160;-84
2023/01/25 09:35:48;;;;;;;3.17;0.95;;;18.60;53.10;;;;;;6128691;23;20516;-85
2023/01/25 09:38:13;;;;;;;1.00;0.75;;;18.50;53.10;;;;;;6154939;23;20191;-84
2023/01/25 09:40:39;;;;;;;4.68;0.80;;;18.50;53.10;;;;;;6131535;23;20136;-83
2023/01/25 09:43:20;;;;;;;3.58;0.77;;;18.50;53.20;;;;;;6131935;23;20132;-85
2023/01/25 09:46:10;;;;;;;3.15;1.00;;;18.60;53.30;;;;;;6103078;23;20439;-85
2023/01/25 09:48:40;;;;;;;6.63;0.90;;;18.60;53.30;;;;;;6129138;23;20148;-83
2023/01/25 09:51:19;;;;;;;1.15;0.80;;;18.50;53.40;;;;;;6127471;23;20171;-85
2023/01/25 09:54:02;;;;;;;2.08;0.82;;;18.50;53.40;;;;;;6102759;23;20190;-84
2023/01/25 09:56:32;;;;;;;1.85;0.60;;;18.50;53.60;;;;;;6040476;23;20161;-83
2023/01/25 09:59:02;;;;;;;4.75;0.98;;;18.50;53.60;;;;;;5993278;23;20609;-83
2023/01/25 10:01:49;;;;;;;2.28;0.63;;;18.40;53.70;;;;;;6019638;23;20214;-86
2023/01/25 10:04:38;;;;;;;1.10;0.73;;;18.60;53.60;;;;;;6018386;23;20143;-84
2023/01/25 10:07:23;;;;;;;5.03;0.90;;;18.50;53.80;;;;;;6040268;23;20165;-85
2023/01/25 10:09:56;;;;;;;4.05;0.90;;;18.50;53.70;;;;;;5995466;23;20251;-84
2023/01/25 10:12:52;;;;;;;4.25;0.70;;;18.40;53.70;;;;;;6021813;23;20146;-84
2023/01/25 10:15:24;;;;;;;2.55;0.90;;;18.50;53.50;;;;;;5986896;23;20182;-84
2023/01/25 10:18:06;;;;;;;4.05;0.60;;;18.50;53.70;;;;;;5964835;24;20195;-85
2023/01/25 10:20:46;;;;;;;3.72;0.70;;;18.60;53.70;;;;;;5966927;24;20337;-85
2023/01/25 10:23:47;;;;;;;2.22;0.90;;;18.70;53.70;;;;;;5944418;24;20166;-85
2023/01/25 10:26:25;;;;;;;1.30;0.75;;;18.70;53.60;;;;;;5933743;24;20248;-85
2023/01/25 10:29:15;;;;;;;3.28;0.70;;;18.60;53.70;;;;;;5988324;23;20150;-85
2023/01/25 10:31:48;;;;;;;1.85;0.60;;;18.60;53.60;;;;;;5991367;23;20692;-85
2023/01/25 10:34:19;;;;;;;0.60;0.60;;;18.60;53.80;;;;;;5969700;23;20176;-85
2023/01/25 10:36:48;;;;;;;1.60;0.73;;;18.60;53.70;;;;;;5968669;23;20162;-84
2023/01/25 10:39:17;;;;;;;1.73;0.90;;;18.60;54.00;;;;;;5944793;23;20594;-84
2023/01/25 10:41:55;;;;;;;4.45;0.80;;;18.70;53.90;;;;;;5968991;23;20158;-84
2023/01/25 10:44:30;;;;;;;2.25;0.90;;;18.60;54.10;;;;;;6015884;23;20165;-85
2023/01/25 10:47:00;;;;;;;0.75;0.65;;;18.60;54.10;;;;;;5968396;23;20670;-84
2023/01/25 10:49:41;;;;;;;1.00;0.70;;;18.70;54.00;;;;;;6013245;23;20599;-85
2023/01/25 10:53:07;;;;;;;0.95;0.68;;;18.60;53.70;;;;;;6016494;23;20265;-86
2023/01/25 10:55:33;;;;;;;1.90;0.70;;;18.60;53.90;;;;;;5985090;24;20638;-85
2023/01/25 10:57:58;;;;;;;0.80;0.55;;;18.60;53.90;;;;;;6059032;23;20160;-87
2023/01/25 11:00:35;;;;;;;2.15;0.60;;;18.70;53.90;;;;;;6030049;23;20197;-86
2023/01/25 11:03:02;;;;;;;2.05;0.70;;;18.70;53.80;;;;;;6053576;23;20224;-87
2023/01/25 11:05:34;;;;;;;0.85;0.60;;;18.60;53.80;;;;;;6053753;23;20153;-86
2023/01/25 11:08:33;;;;;;;0.93;0.50;;;18.70;53.90;;;;;;6054784;23;20157;-87
2023/01/25 11:11:10;;;;;;;4.07;1.02;;;18.70;53.80;;;;;;6053766;23;20184;-84
2023/01/25 11:13:36;;;;;;;5.28;0.93;;;18.60;53.70;;;;;;6049139;23;20576;-85
2023/01/25 11:16:36;;;;;;;2.72;0.70;;;18.60;53.80;;;;;;6050511;23;20153;-85
2023/01/25 11:19:02;;;;;;;3.35;0.63;;;18.70;53.80;;;;;;6070090;23;20188;-84
2023/01/25 11:21:29;;;;;;;4.15;0.63;;;18.70;53.70;;;;;;6046812;23;20141;-85
2023/01/25 11:24:16;;;;;;;1.33;0.70;;;18.70;53.60;;;;;;6050292;23;20157;-85
2023/01/25 11:26:42;;;;;;;3.40;0.60;;;18.70;53.60;;;;;;6051398;23;20312;-85
2023/01/25 11:29:17;;;;;;;2.58;0.70;;;18.70;53.60;;;;;;6054279;23;20142;-85
2023/01/25 11:31:46;;;;;;;2.13;0.70;;;18.60;53.50;;;;;;6079098;23;20192;-83
2023/01/25 11:34:15;;;;;;;5.07;0.93;;;18.70;53.50;;;;;;6132852;23;20137;-84
2023/01/25 11:37:01;;;;;;;2.70;0.80;;;18.70;53.40;;;;;;6108667;23;20140;-86
2023/01/25 11:39:52;;;;;;;4.05;0.88;;;18.70;53.50;;;;;;6111222;23;20166;-86
2023/01/25 11:42:44;;;;;;;2.58;0.73;;;18.80;53.40;;;;;;6111645;23;20137;-87
2023/01/25 11:45:48;;;;;;;4.07;0.80;;;18.70;53.40;;;;;;6089521;23;20152;-87
2023/01/25 11:48:42;;;;;;;;;;;;;;;;;;;;;
2023/01/25 11:52:00;;;;;;;;;;;;;;;;;;;;;
2023/01/25 11:55:20;;;;;;;3.00;0.88;;;18.70;53.50;;;;;;6045924;23;20183;-87
2023/01/25 11:58:43;;;;;;;2.25;0.60;;;18.60;53.50;;;;;;6117780;23;20155;-87
2023/01/25 12:01:41;;;;;;;2.42;0.85;;;18.60;53.50;;;;;;6109754;23;20156;-83
2023/01/25 12:11:41;;;;;;;2.90;0.60;;;18.70;53.30;;;;;;6201078;23;20217;-85
2023/01/25 12:15:18;;;;;;;;;;;;;;;;;;;;;
2023/01/25 12:18:44;;;;;;;;;;;;;;;;;;;;;
2023/01/25 12:21:23;;;;;;;2.13;0.88;;;18.70;53.20;;;;;;5852515;24;20218;-84
2023/01/25 12:24:28;;;;;;;1.30;0.73;;;18.70;53.10;;;;;;5812097;24;20222;-86
2023/01/25 12:30:35;;;;;;;0.55;0.52;;;18.80;53.00;;;;;;5786083;24;20200;-81
2023/01/25 12:33:46;;;;;;;2.40;1.10;;;18.80;52.90;;;;;;5765052;24;20160;-82
2023/01/25 12:36:34;;;;;;;2.50;0.70;;;18.80;53.00;;;;;;5726287;25;20201;-81
2023/01/25 12:39:23;;;;;;;3.42;0.80;;;18.80;52.90;;;;;;5744734;25;20178;-83
2023/01/25 12:45:18;;;;;;;4.63;0.90;;;18.70;52.90;;;;;;5651082;25;20246;-82
2023/01/25 12:48:42;;;;;;;;;;;;;;;;;;;;;
2023/01/25 12:51:36;;;;;;;3.45;0.55;;;18.70;53.00;;;;;;5641969;25;20226;-83
2023/01/25 12:54:29;;;;;;;;;;;;;;;;;;;;;
2023/01/25 12:57:24;;;;;;;0.80;0.50;;;18.70;53.00;;;;;;5678586;25;20195;-85
2023/01/25 13:00:32;;;;;;;4.03;0.77;;;18.80;53.70;;;;;;5675042;25;20174;-84
2023/01/25 13:03:51;;;;;;;;;;;;;;;;;;;;;
2023/01/25 13:28:45;;;;;;;2.30;1.00;;;18.70;52.80;;;;;;5828739;24;20222;-84
2023/01/25 13:31:59;;;;;;;2.15;0.75;;;18.80;53.70;;;;;;5805281;24;20231;-84
2023/01/25 13:35:05;;;;;;;4.65;0.88;;;18.80;52.70;;;;;;5772385;24;20164;-82
2023/01/25 13:37:45;;;;;;;;;;;;;;;;;;;;;
2023/01/25 13:41:20;;;;;;;3.55;0.93;;;18.90;52.50;;;;;;5783621;24;20180;-84
2023/01/25 13:43:43;;;;;;;2.15;0.70;;;18.90;52.50;;;;;;5769530;24;20157;-82
2023/01/25 13:46:16;;;;;;;2.85;0.50;;;18.80;52.40;;;;;;5754339;24;20157;-84
2023/01/25 13:49:16;;;;;;;;;;;;;;;;;;;;;
2023/01/25 13:52:20;;;;;;;;;;;;;;;;;;;;;
2023/01/25 13:55:18;;;;;;;1.77;0.60;;;18.90;52.10;;;;;;5835423;24;20181;-85
2023/01/25 13:57:53;;;;;;;8.18;0.93;;;18.90;52.00;;;;;;5820876;24;20206;-85
2023/01/25 14:01:06;;;;;;;;;;;;;;;;;;;;;
2023/01/25 14:03:54;;;;;;;1.33;0.60;;;18.90;52.00;;;;;;5833591;24;20194;-86
2023/01/25 14:06:35;;;;;;;;;;;;;;;;;;;;;
2023/01/25 14:09:16;;;;;;;;;;;;;;;;;;;;;
2023/01/25 14:12:10;;;;;;;3.10;0.68;;;18.90;51.80;;;;;;5866980;24;20224;-85
2023/01/25 14:14:48;;;;;;;4.68;1.15;;;18.90;51.70;;;;;;5851377;24;20192;-85
2023/01/25 14:20:28;;;;;;;7.28;1.00;;;18.90;51.70;;;;;;5808641;24;20168;-86
2023/01/25 14:23:59;;;;;;;4.63;1.00;;;18.90;51.80;;;;;;5803250;24;20172;-85
2023/01/25 14:33:53;;;;;;;5.88;1.05;;;18.90;52.00;;;;;;5602367;25;20165;-89
2023/01/25 14:36:38;;;;;;;;;;;;;;;;;;;;;
2023/01/25 14:39:26;;;;;;;5.53;1.15;;;18.90;51.90;;;;;;5557119;25;20591;-88
2023/01/25 14:42:24;;;;;;;6.28;1.42;;;18.90;51.90;;;;;;5551096;25;20188;-88
2023/01/25 14:45:26;;;;;;;5.68;0.90;;;18.90;51.90;;;;;;5567379;25;20227;-87
2023/01/25 14:48:09;;;;;;;;;;;;;;;;;;;;;
2023/01/25 14:51:27;;;;;;;;;;;;;;;;;;;;;
2023/01/25 14:53:58;;;;;;;12.85;1.00;;;19.00;51.70;;;;;;5617805;25;20215;-86
2023/01/25 14:56:29;;;;;;;6.45;1.25;;;19.00;51.70;;;;;;5650109;25;20179;-85
2023/01/25 14:59:05;;;;;;;1.77;0.80;;;18.90;51.90;;;;;;5673111;25;20159;-85
2023/01/25 15:01:38;;;;;;;11.07;1.10;;;18.90;51.70;;;;;;5652992;25;20589;-86
2023/01/25 15:04:09;;;;;;;6.68;0.98;;;18.80;51.70;;;;;;5685780;24;20174;-87
2023/01/25 15:06:45;;;;;;;3.67;1.00;;;18.90;51.70;;;;;;5832431;24;20271;-86
2023/01/25 15:09:45;;;;;;;5.03;0.93;;;18.90;51.70;;;;;;5867316;23;20600;-86
2023/01/25 15:12:26;;;;;;;5.28;0.88;;;18.80;51.60;;;;;;6013789;23;20290;-85
2023/01/25 15:15:01;;;;;;;4.75;1.00;;;18.90;51.70;;;;;;5998786;23;20177;-86
2023/01/25 15:17:42;;;;;;;13.48;1.10;;;18.90;51.70;;;;;;5916258;24;20230;-86
2023/01/25 15:20:26;;;;;;;8.82;1.05;;;18.90;51.70;;;;;;5866053;24;20235;-86
2023/01/25 15:22:55;;;;;;;7.40;1.00;;;18.90;52.50;;;;;;5856402;24;20159;-85
2023/01/25 15:25:25;;;;;;;8.80;1.20;;;18.90;51.70;;;;;;5803765;24;20164;-86
2023/01/25 15:27:56;;;;;;;5.85;0.98;;;18.90;51.70;;;;;;5822321;24;20556;-84
2023/01/25 15:30:31;;;;;;;8.73;1.30;;;18.90;51.70;;;;;;5862155;24;20190;-85
2023/01/25 15:32:57;;;;;;;7.32;1.00;;;18.90;51.70;;;;;;5834368;24;20158;-85
2023/01/25 15:35:24;;;;;;;7.28;1.00;;;18.90;51.60;;;;;;5811377;24;20188;-85
2023/01/25 15:37:52;;;;;;;6.55;0.90;;;18.90;51.70;;;;;;5789547;24;20159;-85
2023/01/25 15:40:17;;;;;;;7.25;1.13;;;18.90;51.70;;;;;;5834194;24;20154;-84
2023/01/25 15:42:48;;;;;;;6.45;0.95;;;18.90;51.60;;;;;;5812603;24;20193;-85
2023/01/25 15:45:14;;;;;;;8.50;0.95;;;18.90;51.50;;;;;;5830183;24;20162;-84
2023/01/25 15:47:40;;;;;;;6.80;0.85;;;18.90;51.40;;;;;;5784898;24;20168;-85
2023/01/25 15:50:08;;;;;;;5.03;0.98;;;18.90;51.40;;;;;;5809605;24;20186;-83
2023/01/25 15:52:36;;;;;;;7.57;0.80;;;18.90;51.40;;;;;;5880089;24;20149;-83
2023/01/25 15:55:02;;;;;;;5.22;1.02;;;18.90;51.40;;;;;;5985914;23;20170;-83
2023/01/25 15:57:30;;;;;;;4.68;1.15;;;18.90;51.40;;;;;;6027189;23;20150;-83
2023/01/25 15:59:56;;;;;;;10.93;1.33;;;18.90;51.50;;;;;;6028500;23;20566;-83
2023/01/25 16:02:22;;;;;;;6.20;1.05;;;18.90;51.50;;;;;;6050537;23;20196;-83
2023/01/25 16:04:48;;;;;;;3.00;0.73;;;18.90;51.40;;;;;;6101314;23;20182;-83
2023/01/25 16:07:20;;;;;;;4.20;1.13;;;18.80;51.30;;;;;;6113489;23;20136;-84
2023/01/25 16:09:47;;;;;;;2.28;1.20;;;18.80;51.30;;;;;;6089365;23;20222;-83
2023/01/25 16:12:12;;;;;;;11.10;1.20;;;18.90;51.40;;;;;;6085798;23;20290;-83
2023/01/25 16:14:38;;;;;;;7.80;1.08;;;18.80;51.50;;;;;;6086217;23;20158;-84
2023/01/25 16:17:04;;;;;;;7.65;1.73;;;18.80;51.50;;;;;;6110156;23;20567;-84
2023/01/25 16:19:30;;;;;;;7.93;1.58;;;18.80;51.60;;;;;;6111619;23;20499;-82
2023/01/25 16:21:57;;;;;;;4.57;0.98;;;18.80;51.60;;;;;;6114899;23;20140;-83
2023/01/25 16:24:22;;;;;;;14.57;1.40;;;18.80;51.50;;;;;;6090731;23;20143;-82
2023/01/25 16:26:53;;;;;;;3.28;1.02;;;18.80;51.50;;;;;;6089133;23;20190;-83
2023/01/25 16:29:20;;;;;;;7.45;1.33;;;18.80;51.50;;;;;;6139480;23;20143;-83
2023/01/25 16:31:46;;;;;;;8.10;1.63;;;18.80;51.50;;;;;;6089154;23;20180;-83
2023/01/25 16:34:12;;;;;;;4.88;1.20;;;18.80;51.70;;;;;;6109493;23;20496;-84
2023/01/25 16:36:38;;;;;;;5.35;1.20;;;18.80;51.60;;;;;;6110397;23;20140;-83
2023/01/25 16:39:08;;;;;;;6.18;1.17;;;18.80;51.70;;;;;;6090040;23;20140;-84
2023/01/25 16:41:34;;;;;;;8.02;1.35;;;18.80;51.60;;;;;;6112770;23;20149;-84
2023/01/25 16:44:02;;;;;;;5.82;1.23;;;18.90;51.60;;;;;;6109316;23;20187;-84
2023/01/25 16:46:27;;;;;;;4.05;1.02;;;19.00;51.70;;;;;;6108677;23;20167;-84
2023/01/25 16:48:55;;;;;;;7.90;1.30;;;18.90;51.70;;;;;;6132670;23;20571;-84
2023/01/25 16:51:23;;;;;;;15.57;1.95;;;18.90;51.70;;;;;;6083637;23;20206;-84
2023/01/25 16:53:55;;;;;;;3.67;1.10;;;18.90;51.80;;;;;;6109245;23;20142;-84
2023/01/25 16:56:22;;;;;;;6.90;1.70;;;18.90;51.80;;;;;;6115746;23;20132;-84
2023/01/25 16:58:48;;;;;;;8.63;1.13;;;19.00;51.90;;;;;;6112251;23;20218;-85
2023/01/25 17:01:17;;;;;;;8.00;1.20;;;18.90;51.90;;;;;;6089251;23;20143;-85
2023/01/25 17:03:43;;;;;;;7.60;1.48;;;18.90;51.80;;;;;;6111849;23;20136;-85
2023/01/25 17:06:22;;;;;;;5.22;1.35;;;18.90;51.90;;;;;;6138912;23;20136;-85
2023/01/25 17:08:48;;;;;;;6.45;1.08;;;19.00;51.90;;;;;;6089144;23;20166;-84
2023/01/25 17:11:13;;;;;;;6.10;1.20;;;19.00;51.90;;;;;;6110830;23;20183;-85
2023/01/25 17:13:39;;;;;;;8.10;1.23;;;19.00;52.00;;;;;;6113426;23;20178;-86
2023/01/25 17:16:05;;;;;;;6.25;1.40;;;19.00;52.20;;;;;;6090345;23;20159;-83
2023/01/25 17:18:32;;;;;;;6.93;1.13;;;19.00;52.20;;;;;;6089696;23;20207;-84
2023/01/25 17:21:00;;;;;;;10.63;1.30;;;19.00;52.30;;;;;;6086518;23;20166;-84
2023/01/25 17:23:26;;;;;;;4.05;1.27;;;19.00;52.10;;;;;;6109181;23;20139;-85
2023/01/25 17:25:53;;;;;;;8.63;1.23;;;19.00;52.10;;;;;;6108752;23;20160;-85
2023/01/25 17:28:19;;;;;;;4.80;1.10;;;19.00;52.00;;;;;;6133297;23;20131;-84
2023/01/25 17:30:45;;;;;;;8.63;1.45;;;19.00;52.20;;;;;;6108479;23;20205;-84
2023/01/25 17:33:11;;;;;;;6.97;1.15;;;19.00;52.10;;;;;;6132584;23;20224;-84
2023/01/25 17:35:37;;;;;;;8.77;1.70;;;19.00;51.90;;;;;;6108701;23;20144;-85
2023/01/25 17:38:10;;;;;;;9.10;1.45;;;19.00;52.00;;;;;;6135032;23;20186;-85
2023/01/25 17:40:36;;;;;;;18.90;1.70;;;18.90;52.10;;;;;;6047238;23;20162;-85
2023/01/25 17:43:03;;;;;;;12.30;2.15;;;18.90;52.10;;;;;;6025392;23;20241;-84
2023/01/25 17:45:28;;;;;;;14.07;1.80;;;18.90;52.10;;;;;;6022223;23;20233;-84
2023/01/25 17:47:54;;;;;;;19.35;2.05;;;19.00;52.20;;;;;;6026638;23;20160;-86
2023/01/25 17:50:20;;;;;;;17.75;2.00;;;18.90;52.30;;;;;;6028276;23;20260;-84
2023/01/25 17:52:48;;;;;;;23.02;2.55;;;18.90;52.40;;;;;;6005670;23;20141;-85
2023/01/25 17:55:20;;;;;;;14.35;1.70;;;19.00;52.50;;;;;;6007369;23;20150;-84
2023/01/25 17:57:49;;;;;;;16.17;1.85;;;19.00;52.60;;;;;;6055537;23;20145;-84
2023/01/25 18:00:18;;;;;;;17.75;1.58;;;18.90;52.60;;;;;;5966351;24;20314;-83
2023/01/25 18:02:50;;;;;;;20.77;2.05;;;19.00;52.80;;;;;;5968383;24;20179;-84
2023/01/25 18:05:37;;;;;;;18.88;1.95;;;19.10;52.80;;;;;;5961332;24;20203;-83
2023/01/25 18:08:04;;;;;;;18.33;1.50;;;19.10;52.90;;;;;;5960936;24;20167;-84
2023/01/25 18:10:32;;;;;;;21.23;1.77;;;19.00;52.80;;;;;;5986780;24;20229;-82
2023/01/25 18:13:04;;;;;;;16.48;2.00;;;19.00;52.80;;;;;;5985848;24;20194;-83
2023/01/25 18:15:29;;;;;;;8.95;1.35;;;19.00;52.80;;;;;;5961319;24;20476;-82
2023/01/25 18:17:58;;;;;;;7.03;1.90;;;19.00;52.90;;;;;;5982923;24;20180;-83
2023/01/25 18:20:24;;;;;;;6.50;1.17;;;19.00;52.80;;;;;;5983359;24;20191;-82
2023/01/25 18:22:50;;;;;;;9.50;1.38;;;19.10;52.70;;;;;;5983260;24;20618;-82
2023/01/25 18:25:33;;;;;;;12.25;1.52;;;19.10;52.60;;;;;;6038342;23;20613;-84
2023/01/25 18:27:59;;;;;;;8.40;1.30;;;19.10;52.90;;;;;;6076008;23;20165;-84
2023/01/25 18:30:36;;;;;;;12.68;1.77;;;19.10;52.70;;;;;;6040593;23;20589;-84
2023/01/25 18:33:02;;;;;;;6.35;1.38;;;19.10;52.50;;;;;;6075102;23;20631;-84
2023/01/25 18:35:30;;;;;;;9.48;1.58;;;19.10;52.60;;;;;;6047366;23;20230;-85
2023/01/25 18:37:58;;;;;;;12.18;1.42;;;19.10;52.70;;;;;;6024100;23;20257;-86
2023/01/25 18:40:24;;;;;;;16.17;1.55;;;19.10;52.90;;;;;;6020599;23;20150;-83
2023/01/25 18:42:51;;;;;;;11.13;1.70;;;19.10;53.00;;;;;;6043387;23;20173;-83
2023/01/25 18:45:17;;;;;;;12.48;1.45;;;19.10;52.80;;;;;;6043031;23;20157;-83
2023/01/25 18:47:44;;;;;;;10.95;1.42;;;19.10;52.50;;;;;;6043754;23;20601;-85
2023/01/25 18:50:12;;;;;;;8.75;1.35;;;19.10;52.50;;;;;;6023345;23;20164;-84
2023/01/25 18:52:38;;;;;;;22.02;1.90;;;19.10;52.50;;;;;;5962785;24;20151;-84
2023/01/25 18:55:10;;;;;;;18.80;1.80;;;19.10;52.50;;;;;;5990238;24;20168;-87
2023/01/25 18:57:52;;;;;;;24.25;2.08;;;19.20;52.80;;;;;;5968951;24;20202;-87
2023/01/25 19:00:19;;;;;;;13.55;2.05;;;19.10;52.80;;;;;;5968408;24;20200;-87
2023/01/25 19:02:44;;;;;;;17.65;2.08;;;19.20;52.70;;;;;;6000013;23;20169;-84
2023/01/25 19:05:13;;;;;;;17.25;1.80;;;19.10;52.70;;;;;;6032689;23;20537;-84
2023/01/25 19:07:38;;;;;;;15.88;1.88;;;19.20;52.70;;;;;;6023155;23;20161;-85
2023/01/25 19:10:13;;;;;;;18.05;1.75;;;19.10;52.60;;;;;;5977507;23;20228;-85
2023/01/25 19:12:41;;;;;;;8.90;1.58;;;19.20;52.60;;;;;;6002775;23;20720;-84
2023/01/25 19:15:07;;;;;;;10.10;1.45;;;19.10;52.30;;;;;;6001788;23;20243;-84
2023/01/25 19:17:33;;;;;;;15.80;1.80;;;19.10;52.50;;;;;;5999069;23;20183;-86
2023/01/25 19:20:01;;;;;;;12.57;2.03;;;19.10;52.30;;;;;;5998527;23;20142;-84
2023/01/25 19:22:30;;;;;;;11.38;1.60;;;19.10;52.30;;;;;;6002059;23;20157;-85
2023/01/25 19:24:57;;;;;;;15.55;1.60;;;19.10;52.40;;;;;;6108570;23;20159;-85
2023/01/25 19:27:27;;;;;;;10.18;1.73;;;19.10;52.50;;;;;;6087606;23;20212;-84
2023/01/25 19:29:53;;;;;;;14.48;1.85;;;19.10;52.60;;;;;;6080573;23;20571;-82
2023/01/25 19:32:20;;;;;;;12.10;1.85;;;19.10;52.80;;;;;;6081889;23;20276;-84
2023/01/25 19:34:47;;;;;;;10.40;1.50;;;19.10;52.80;;;;;;6135642;23;20156;-84
2023/01/25 19:37:19;;;;;;;11.27;1.55;;;19.10;52.80;;;;;;6090250;23;20171;-84
2023/01/25 19:39:54;;;;;;;10.52;1.48;;;19.10;52.60;;;;;;6120062;23;20155;-86
2023/01/25 19:42:20;;;;;;;12.02;1.50;;;19.00;52.50;;;;;;6051897;23;20153;-84
2023/01/25 19:44:48;;;;;;;9.40;1.23;;;19.00;52.70;;;;;;6025076;23;20161;-84
2023/01/25 19:47:14;;;;;;;7.53;1.45;;;19.10;52.60;;;;;;6024746;23;20153;-85
2023/01/25 19:49:39;;;;;;;9.15;1.42;;;19.10;52.50;;;;;;6021697;23;20184;-83
2023/01/25 19:52:05;;;;;;;7.07;1.33;;;19.20;52.40;;;;;;6021894;23;20209;-84
2023/01/25 19:54:31;;;;;;;10.65;1.98;;;19.10;52.30;;;;;;6045352;23;20166;-84
2023/01/25 19:56:57;;;;;;;9.57;1.65;;;19.10;52.20;;;;;;6045414;23;20515;-82
2023/01/25 19:59:25;;;;;;;12.65;1.77;;;19.10;52.10;;;;;;6023588;23;20150;-84
2023/01/25 20:01:53;;;;;;;13.27;1.52;;;19.10;52.10;;;;;;6023671;23;20154;-83
2023/01/25 20:04:21;;;;;;;11.02;1.45;;;19.10;52.10;;;;;;6026985;23;20513;-84
2023/01/25 20:06:49;;;;;;;9.75;1.65;;;19.10;52.20;;;;;;6069235;23;20147;-82
2023/01/25 20:09:16;;;;;;;14.10;1.90;;;19.10;52.00;;;;;;6094836;23;20174;-84
2023/01/25 20:11:41;;;;;;;18.40;1.70;;;19.00;52.00;;;;;;6116900;23;20195;-84
2023/01/25 20:14:09;;;;;;;13.65;1.58;;;19.10;52.00;;;;;;6117537;23;20214;-84
2023/01/25 20:16:35;;;;;;;14.70;1.98;;;19.00;52.00;;;;;;6117553;23;20132;-83
2023/01/25 20:19:01;;;;;;;18.67;2.10;;;19.10;52.10;;;;;;6116109;23;20140;-84
2023/01/25 20:21:28;;;;;;;16.30;2.00;;;19.00;51.90;;;;;;6117062;23;20210;-85
2023/01/25 20:23:56;;;;;;;16.55;2.13;;;19.00;51.80;;;;;;6118127;23;20159;-85
2023/01/25 20:26:27;;;;;;;16.73;2.33;;;19.00;51.70;;;;;;6104747;23;20156;-86
2023/01/25 20:28:54;;;;;;;14.02;1.73;;;19.00;51.90;;;;;;6116886;23;20559;-84
2023/01/25 20:31:23;;;;;;;7.70;1.42;;;19.00;52.50;;;;;;6097049;23;20182;-86
2023/01/25 20:33:52;;;;;;;14.70;1.52;;;19.00;51.60;;;;;;6096969;23;20567;-85
2023/01/25 20:36:18;;;;;;;12.93;1.52;;;18.90;51.70;;;;;;6120824;23;20208;-86
2023/01/25 20:38:43;;;;;;;12.32;1.65;;;19.00;51.50;;;;;;6121159;23;20135;-86
2023/01/25 20:41:13;;;;;;;14.38;1.80;;;19.00;51.60;;;;;;6120402;23;20131;-86
2023/01/25 20:43:43;;;;;;;8.55;1.48;;;19.00;51.70;;;;;;6121488;23;20142;-86
2023/01/25 20:46:09;;;;;;;8.68;1.55;;;18.90;51.70;;;;;;6145793;23;20139;-84
2023/01/25 20:48:35;;;;;;;6.35;1.40;;;18.90;51.60;;;;;;6096695;23;20148;-85
2023/01/25 20:51:03;;;;;;;11.23;1.67;;;18.90;52.20;;;;;;6145661;23;20167;-85
2023/01/25 20:53:30;;;;;;;6.22;1.40;;;18.90;51.60;;;;;;6120933;23;20159;-85
2023/01/25 20:55:56;;;;;;;3.85;1.23;;;18.90;51.50;;;;;;6096645;23;20143;-85
2023/01/25 20:58:22;;;;;;;8.60;1.50;;;18.90;51.60;;;;;;6097818;23;20140;-85
2023/01/25 21:00:49;;;;;;;9.80;1.50;;;18.90;51.60;;;;;;6097123;23;20147;-85
2023/01/25 21:03:16;;;;;;;6.28;1.50;;;18.90;51.60;;;;;;6121706;23;20219;-85
2023/01/25 21:05:54;;;;;;;7.05;1.63;;;18.90;51.50;;;;;;6120859;23;20135;-85
2023/01/25 21:08:20;;;;;;;7.57;1.58;;;18.90;51.50;;;;;;6144636;23;20158;-85
2023/01/25 21:10:50;;;;;;;7.90;1.55;;;18.90;51.40;;;;;;6096620;23;20630;-85
2023/01/25 21:13:16;;;;;;;8.07;1.60;;;18.90;51.40;;;;;;6121603;23;20246;-85
2023/01/25 21:15:42;;;;;;;7.60;1.30;;;18.90;51.40;;;;;;6095565;23;20147;-85
2023/01/25 21:18:08;;;;;;;8.02;1.55;;;18.90;51.40;;;;;;6096357;23;20144;-85
2023/01/25 21:20:40;;;;;;;7.97;1.70;;;18.90;51.40;;;;;;6119901;23;20144;-85
2023/01/25 21:23:06;;;;;;;7.95;1.40;;;18.90;51.30;;;;;;6120765;23;20158;-84
2023/01/25 21:25:35;;;;;;;7.45;1.80;;;18.90;51.40;;;;;;6121107;23;20135;-85
2023/01/25 21:28:04;;;;;;;6.53;1.23;;;18.80;51.20;;;;;;6096407;23;20170;-85
2023/01/25 21:30:30;;;;;;;9.95;1.42;;;18.90;51.40;;;;;;6171016;23;20170;-84
2023/01/25 21:32:58;;;;;;;8.45;1.27;;;18.80;51.30;;;;;;6119907;23;20135;-85
2023/01/25 21:35:25;;;;;;;8.30;1.40;;;18.80;51.20;;;;;;6120540;23;20150;-85
2023/01/25 21:37:51;;;;;;;7.63;1.35;;;18.90;51.30;;;;;;6097099;23;20151;-85
2023/01/25 21:40:16;;;;;;;6.03;1.20;;;18.90;51.30;;;;;;6144666;23;20227;-85
2023/01/25 21:42:43;;;;;;;7.93;1.23;;;18.80;51.20;;;;;;6096462;23;20158;-84
2023/01/25 21:47:49;;;;;;;6.30;1.42;;;18.80;51.20;;;;;;6125048;23;20131;-85
2023/01/25 21:52:59;;;;;;;5.65;1.65;;;18.80;51.10;;;;;;6125934;23;20131;-85
2023/01/25 21:55:25;;;;;;;5.95;1.45;;;18.80;51.10;;;;;;6096438;23;20147;-85